createdAt,value
2019-05-26T00:00:03.394Z,9.15
2019-05-26T00:01:03.052Z,7.41
2019-05-26T00:02:02.964Z,6.31
2019-05-26T00:03:03.412Z,8.19
2019-05-26T00:04:02.747Z,7.42
2019-05-26T00:05:02.353Z,6.62
2019-05-26T00:06:03.141Z,6.62
2019-05-26T00:07:02.729Z,10.23
2019-05-26T00:08:02.422Z,6.81
2019-05-26T00:09:03.446Z,9.93
2019-05-26T00:10:02.932Z,8.08
2019-05-26T00:11:01.406Z,9.29
2019-05-26T00:12:02.938Z,6.34
2019-05-26T00:13:02.651Z,7.15
2019-05-26T00:14:03.429Z,6.59
2019-05-26T00:15:03.023Z,7.55
2019-05-26T00:16:02.743Z,7.64
2019-05-26T00:17:03.157Z,5.71
2019-05-26T00:18:02.859Z,8.42
2019-05-26T00:19:02.349Z,5.69
2019-05-26T00:20:03.424Z,6.47
2019-05-26T00:21:02.891Z,7.84
2019-05-26T00:22:02.380Z,5.41
2019-05-26T00:23:03.105Z,5.45
2019-05-26T00:24:02.556Z,5.52
2019-05-26T00:25:03.256Z,7.39
2019-05-26T00:26:02.705Z,6.25
2019-05-26T00:27:02.535Z,5.46
2019-05-26T00:28:03.077Z,5.81
2019-05-26T00:29:02.588Z,5.41
2019-05-26T00:30:03.354Z,5.14
2019-05-26T00:31:02.839Z,5.69
2019-05-26T00:32:02.576Z,8.28
2019-05-26T00:33:03.361Z,5.61
2019-05-26T00:34:02.861Z,5.04
2019-05-26T00:35:02.543Z,5.01
2019-05-26T00:36:02.985Z,5.54
2019-05-26T00:37:02.756Z,4.96
2019-05-26T00:38:03.315Z,5.54
2019-05-26T00:39:03.080Z,4.87
2019-05-26T00:40:02.919Z,5.08
2019-05-26T00:41:02.446Z,5.08
2019-05-26T00:42:02.934Z,4.78
2019-05-26T00:43:02.779Z,4.78
2019-05-26T00:44:03.174Z,7.59
2019-05-26T00:45:03.225Z,5.65
2019-05-26T00:46:03.216Z,5.65
2019-05-26T00:47:03.176Z,5.69
2019-05-26T00:48:02.853Z,6.39
2019-05-26T00:49:02.565Z,5.24
2019-05-26T00:50:03.225Z,6.2
2019-05-26T00:51:03.026Z,4.8
2019-05-26T00:52:02.392Z,5.43
2019-05-26T00:53:03.080Z,7.29
2019-05-26T00:54:02.605Z,4.91
2019-05-26T00:55:03.491Z,4.43
2019-05-26T00:56:03.065Z,6.25
2019-05-26T00:57:02.757Z,4.61
2019-05-26T00:58:02.510Z,4.98
2019-05-26T00:59:03.056Z,5.06
2019-05-26T01:00:02.751Z,5.39
2019-05-26T01:01:03.366Z,6.45
2019-05-26T01:02:02.872Z,5.42
2019-05-26T01:03:02.679Z,5.56
2019-05-26T01:04:03.197Z,4.86
2019-05-26T01:05:03.030Z,5.85
2019-05-26T01:06:02.579Z,5.57
2019-05-26T01:07:03.229Z,4.34
2019-05-26T01:08:06.069Z,5.68
2019-05-26T01:09:02.490Z,5.13
2019-05-26T01:10:03.527Z,5.83
2019-05-26T01:11:02.920Z,7.01
2019-05-26T01:12:02.460Z,6.66
2019-05-26T01:13:02.942Z,4.66
2019-05-26T01:14:02.523Z,4.89
2019-05-26T01:15:02.639Z,4.98
2019-05-26T01:16:02.936Z,5.29
2019-05-26T01:17:03.260Z,5.16
2019-05-26T01:18:04.113Z,5.3
2019-05-26T01:19:02.495Z,4.51
2019-05-26T01:20:03.033Z,4.63
2019-05-26T01:21:02.570Z,5.61
2019-05-26T01:22:02.789Z,4.73
2019-05-26T01:23:03.058Z,6.06
2019-05-26T01:24:02.648Z,5.22
2019-05-26T01:25:03.194Z,5.12
2019-05-26T01:26:03.024Z,5.95
2019-05-26T01:27:02.679Z,4.91
2019-05-26T01:28:03.418Z,4.91
2019-05-26T01:29:03.446Z,5.54
2019-05-26T01:30:02.656Z,4.98
2019-05-26T01:31:03.230Z,4.98
2019-05-26T01:32:02.649Z,4.59
2019-05-26T01:33:02.410Z,5.68
2019-05-26T01:34:02.750Z,5.68
2019-05-26T01:35:02.803Z,4.74
2019-05-26T01:36:03.226Z,5.24
2019-05-26T01:37:02.917Z,5.94
2019-05-26T01:38:02.757Z,5.94
2019-05-26T01:39:02.554Z,7
2019-05-26T01:40:02.588Z,7.97
2019-05-26T01:41:02.439Z,10.3
2019-05-26T01:42:03.181Z,5.35
2019-05-26T01:43:02.326Z,5.53
2019-05-26T01:44:03.122Z,6.08
2019-05-26T01:45:02.898Z,8.51
2019-05-26T01:46:02.424Z,5.61
2019-05-26T01:47:03.170Z,5.66
2019-05-26T01:48:02.826Z,5.86
2019-05-26T01:49:02.392Z,5.21
2019-05-26T01:50:03.249Z,7.39
2019-05-26T01:51:02.903Z,11.16
2019-05-26T01:52:02.904Z,6.39
2019-05-26T01:53:02.880Z,4.82
2019-05-26T01:54:02.475Z,5.85
2019-05-26T01:55:03.260Z,5.87
2019-05-26T01:56:02.671Z,8.87
2019-05-26T01:57:03.305Z,5.14
2019-05-26T01:58:02.972Z,4.87
2019-05-26T01:59:02.827Z,5.18
2019-05-26T02:00:02.376Z,7.08
2019-05-26T02:01:03.154Z,4.56
2019-05-26T02:02:02.941Z,4.96
2019-05-26T02:03:03.252Z,5.92
2019-05-26T02:04:02.880Z,5.6
2019-05-26T02:05:02.452Z,8.61
2019-05-26T02:06:03.194Z,4.79
2019-05-26T02:07:02.896Z,5.4
2019-05-26T02:08:02.339Z,4.9
2019-05-26T02:09:03.160Z,5.75
2019-05-26T02:10:02.883Z,5.75
2019-05-26T02:11:03.145Z,5.48
2019-05-26T02:12:03.188Z,5.38
2019-05-26T02:13:02.671Z,6.28
2019-05-26T02:14:02.158Z,5.4
2019-05-26T02:15:03.034Z,5.32
2019-05-26T02:16:02.750Z,5.08
2019-05-26T02:17:03.072Z,7.5
2019-05-26T02:18:02.950Z,5.32
2019-05-26T02:19:02.541Z,4.88
2019-05-26T02:20:03.236Z,5.05
2019-05-26T02:21:01.665Z,6.36
2019-05-26T02:22:03.427Z,5.33
2019-05-26T02:23:03.073Z,5.34
2019-05-26T02:24:02.875Z,6.05
2019-05-26T02:25:03.395Z,7.97
2019-05-26T02:26:03.077Z,8.56
2019-05-26T02:27:03.245Z,9.15
2019-05-26T02:28:02.959Z,7.53
2019-05-26T02:29:02.519Z,6.9
2019-05-26T02:30:02.726Z,6.05
2019-05-26T02:31:02.811Z,6.46
2019-05-26T02:32:02.366Z,8.01
2019-05-26T02:33:03.224Z,5.97
2019-05-26T02:34:02.481Z,6.16
2019-05-26T02:35:03.142Z,5.67
2019-05-26T02:36:03.029Z,6.25
2019-05-26T02:37:02.606Z,7.84
2019-05-26T02:38:03.393Z,5.78
2019-05-26T02:39:03.653Z,6.14
2019-05-26T02:40:03.369Z,6.12
2019-05-26T02:41:02.701Z,7.59
2019-05-26T02:42:02.661Z,8.8
2019-05-26T02:43:03.219Z,6.38
2019-05-26T02:44:02.724Z,8.81
2019-05-26T02:45:02.538Z,7.01
2019-05-26T02:46:02.886Z,6.27
2019-05-26T02:47:02.467Z,6.45
2019-05-26T02:48:03.065Z,6.43
2019-05-26T02:49:02.804Z,5.96
2019-05-26T02:50:02.593Z,6.03
2019-05-26T02:51:03.395Z,6.49
2019-05-26T02:52:02.689Z,7.09
2019-05-26T02:53:02.389Z,7.11
2019-05-26T02:54:02.970Z,6.24
2019-05-26T02:55:02.944Z,6.24
2019-05-26T02:56:02.474Z,5.96
2019-05-26T02:57:03.157Z,5.96
2019-05-26T02:58:02.773Z,7.71
2019-05-26T02:59:02.433Z,6.26
2019-05-26T03:00:02.923Z,6.26
2019-05-26T03:01:02.639Z,6.79
2019-05-26T03:02:04.432Z,9.1
2019-05-26T03:03:02.926Z,6.45
2019-05-26T03:04:02.480Z,8.24
2019-05-26T03:05:03.271Z,7.28
2019-05-26T03:06:02.680Z,6.75
2019-05-26T03:07:02.408Z,9.44
2019-05-26T03:08:02.907Z,7.1
2019-05-26T03:09:20.838Z,7.66
2019-05-26T03:10:03.394Z,6.66
2019-05-26T03:11:02.684Z,6.55
2019-05-26T03:12:03.176Z,7.44
2019-05-26T03:13:02.672Z,5.86
2019-05-26T03:14:03.321Z,6.75
2019-05-26T03:15:02.854Z,6.55
2019-05-26T03:16:02.842Z,6.56
2019-05-26T03:17:02.348Z,6.72
2019-05-26T03:18:02.829Z,7.58
2019-05-26T03:19:02.706Z,7.04
2019-05-26T03:20:03.179Z,7.27
2019-05-26T03:21:02.872Z,8.82
2019-05-26T03:22:02.474Z,6.81
2019-05-26T03:23:02.889Z,8.73
2019-05-26T03:24:02.314Z,8.88
2019-05-26T03:25:03.262Z,6.94
2019-05-26T03:26:03.122Z,7.87
2019-05-26T03:27:02.593Z,7.77
2019-05-26T03:28:03.289Z,8.79
2019-05-26T03:29:03.057Z,7.52
2019-05-26T03:30:03.251Z,6.82
2019-05-26T03:31:02.869Z,6.91
2019-05-26T03:32:02.672Z,6.95
2019-05-26T03:33:02.305Z,7.58
2019-05-26T03:34:03.586Z,7.16
2019-05-26T03:35:02.764Z,11.02
2019-05-26T03:36:03.104Z,7.49
2019-05-26T03:37:02.907Z,6.98
2019-05-26T03:38:02.231Z,6.85
2019-05-26T03:39:03.396Z,7.19
2019-05-26T03:40:02.933Z,6.58
2019-05-26T03:41:02.509Z,8.5
2019-05-26T03:42:03.341Z,7.23
2019-05-26T03:43:02.585Z,6.9
2019-05-26T03:44:03.027Z,7.28
2019-05-26T03:45:03.217Z,7.28
2019-05-26T03:46:02.497Z,8.09
2019-05-26T03:47:03.178Z,7.45
2019-05-26T03:48:02.933Z,7.45
2019-05-26T03:49:02.613Z,7.94
2019-05-26T03:50:03.299Z,7.94
2019-05-26T03:51:02.764Z,9.31
2019-05-26T03:52:02.627Z,6.96
2019-05-26T03:53:03.144Z,6.68
2019-05-26T03:54:02.747Z,7.34
2019-05-26T03:55:03.435Z,7.17
2019-05-26T03:56:03.200Z,7.17
2019-05-26T03:57:02.825Z,7.01
2019-05-26T03:58:02.362Z,7.88
2019-05-26T03:59:02.893Z,7.87
2019-05-26T04:00:02.569Z,7.61
2019-05-26T04:01:03.353Z,9.04
2019-05-26T04:02:02.709Z,8.04
2019-05-26T04:03:02.890Z,10.78
2019-05-26T04:04:02.366Z,8.11
2019-05-26T04:05:03.329Z,7.84
2019-05-26T04:06:02.775Z,8.32
2019-05-26T04:07:03.715Z,7.88
2019-05-26T04:08:04.621Z,10.34
2019-05-26T04:09:02.594Z,10.58
2019-05-26T04:10:05.682Z,7.41
2019-05-26T04:11:02.653Z,7.59
2019-05-26T04:12:03.297Z,7.38
2019-05-26T04:13:03.046Z,8.85
2019-05-26T04:14:02.487Z,8.04
2019-05-26T04:15:03.275Z,8.69
2019-05-26T04:16:03.073Z,8.84
2019-05-26T04:17:02.629Z,8.68
2019-05-26T04:18:03.308Z,9.86
2019-05-26T04:19:02.943Z,12.02
2019-05-26T04:20:02.637Z,13.71
2019-05-26T04:21:03.168Z,10.61
2019-05-26T04:22:02.778Z,11.93
2019-05-26T04:23:02.509Z,11.58
2019-05-26T04:24:03.033Z,14.04
2019-05-26T04:25:02.993Z,14.12
2019-05-26T04:26:03.265Z,14.74
2019-05-26T04:27:03.279Z,15.15
2019-05-26T04:28:02.730Z,14.19
2019-05-26T04:29:03.299Z,13.39
2019-05-26T04:30:02.886Z,15.12
2019-05-26T04:31:02.548Z,16.63
2019-05-26T04:32:02.843Z,14.58
2019-05-26T04:33:02.645Z,18.29
2019-05-26T04:34:02.505Z,15.74
2019-05-26T04:35:03.245Z,14.76
2019-05-26T04:36:02.552Z,19.46
2019-05-26T04:37:02.228Z,16.49
2019-05-26T04:38:03.080Z,16.49
2019-05-26T04:39:02.479Z,17.22
2019-05-26T04:40:02.519Z,17.22
2019-05-26T04:41:03.245Z,20.62
2019-05-26T04:42:02.699Z,15.69
2019-05-26T04:43:03.384Z,19.61
2019-05-26T04:44:02.955Z,16.33
2019-05-26T04:45:02.634Z,16.15
2019-05-26T04:46:03.211Z,18.23
2019-05-26T04:47:02.937Z,19.68
2019-05-26T04:48:03.413Z,17.66
2019-05-26T04:49:02.775Z,17.81
2019-05-26T04:50:02.481Z,18.82
2019-05-26T04:51:03.295Z,16.98
2019-05-26T04:52:03.110Z,19.88
2019-05-26T04:53:06.466Z,20.44
2019-05-26T04:54:03.169Z,18.82
2019-05-26T04:55:02.970Z,17.84
2019-05-26T04:56:02.444Z,19.85
2019-05-26T04:57:03.073Z,25.93
2019-05-26T04:58:03.013Z,20.78
2019-05-26T04:59:02.500Z,19.86
2019-05-26T05:00:03.305Z,17.86
2019-05-26T05:01:02.705Z,20.32
2019-05-26T05:02:02.559Z,17.79
2019-05-26T05:03:03.207Z,18.45
2019-05-26T05:04:02.757Z,19.61
2019-05-26T05:05:03.360Z,18.66
2019-05-26T05:06:03.034Z,18.94
2019-05-26T05:07:03.269Z,21.28
2019-05-26T05:08:03.059Z,19.44
2019-05-26T05:09:02.790Z,18.98
2019-05-26T05:10:02.974Z,20.31
2019-05-26T05:11:02.743Z,19.65
2019-05-26T05:12:02.432Z,20.11
2019-05-26T05:13:02.842Z,22.72
2019-05-26T05:14:02.597Z,20.24
2019-05-26T05:15:02.737Z,22.71
2019-05-26T05:16:02.735Z,21.11
2019-05-26T05:17:03.154Z,19.58
2019-05-26T05:18:02.920Z,22.91
2019-05-26T05:19:02.568Z,22.22
2019-05-26T05:20:03.050Z,20.25
2019-05-26T05:21:02.772Z,19.09
2019-05-26T05:22:02.506Z,18.5
2019-05-26T05:23:03.234Z,20.38
2019-05-26T05:24:02.912Z,19.69
2019-05-26T05:25:02.452Z,18.64
2019-05-26T05:26:02.943Z,18.23
2019-05-26T05:27:02.676Z,19.32
2019-05-26T05:28:03.366Z,20.35
2019-05-26T05:29:03.062Z,20.35
2019-05-26T05:30:02.999Z,18.04
2019-05-26T05:31:03.159Z,19.45
2019-05-26T05:32:02.976Z,19.45
2019-05-26T05:33:02.314Z,25.25
2019-05-26T05:34:03.324Z,19.7
2019-05-26T05:35:02.730Z,19.16
2019-05-26T05:36:02.721Z,18.61
2019-05-26T05:37:03.321Z,21.8
2019-05-26T05:38:02.793Z,17.64
2019-05-26T05:39:02.466Z,20.15
2019-05-26T05:40:03.110Z,21.33
2019-05-26T05:41:02.870Z,19.41
2019-05-26T05:42:02.704Z,21.19
2019-05-26T05:43:03.194Z,19.12
2019-05-26T05:44:02.673Z,19.65
2019-05-26T05:45:02.331Z,21.64
2019-05-26T05:46:02.896Z,21.22
2019-05-26T05:47:02.937Z,18.87
2019-05-26T05:48:02.492Z,19.99
2019-05-26T05:49:03.301Z,18.08
2019-05-26T05:50:02.769Z,24.6
2019-05-26T05:51:02.259Z,18.25
2019-05-26T05:52:02.843Z,20.85
2019-05-26T05:53:02.308Z,19.52
2019-05-26T05:54:03.207Z,19.55
2019-05-26T05:55:02.723Z,18.72
2019-05-26T05:56:02.343Z,18.13
2019-05-26T05:57:02.777Z,19.97
2019-05-26T05:58:02.388Z,18.76
2019-05-26T05:59:03.008Z,20.04
2019-05-26T06:00:02.997Z,16.42
2019-05-26T06:01:02.358Z,18.26
2019-05-26T06:02:03.075Z,17.41
2019-05-26T06:03:02.467Z,22.14
2019-05-26T06:04:02.628Z,19.24
2019-05-26T06:05:02.909Z,20.82
2019-05-26T06:06:02.527Z,19.43
2019-05-26T06:07:03.598Z,18.77
2019-05-26T06:08:02.992Z,19.32
2019-05-26T06:09:02.395Z,16.94
2019-05-26T06:10:03.031Z,18.43
2019-05-26T06:11:15.211Z,20.01
2019-05-26T06:12:03.146Z,18.97
2019-05-26T06:13:02.398Z,17.61
2019-05-26T06:14:03.364Z,17.23
2019-05-26T06:15:03.005Z,17.48
2019-05-26T06:16:03.151Z,18.42
2019-05-26T06:17:02.755Z,18.27
2019-05-26T06:18:02.622Z,18.27
2019-05-26T06:19:03.018Z,21.29
2019-05-26T06:20:02.773Z,21.29
2019-05-26T06:21:02.760Z,18.48
2019-05-26T06:22:02.525Z,19.31
2019-05-26T06:23:02.335Z,19.31
2019-05-26T06:24:03.024Z,16.66
2019-05-26T06:25:02.892Z,17.59
2019-05-26T06:26:02.374Z,17.59
2019-05-26T06:27:03.132Z,20.26
2019-05-26T06:28:02.637Z,19.17
2019-05-26T06:29:03.075Z,18.11
2019-05-26T06:30:02.654Z,18.11
2019-05-26T06:31:02.584Z,17.84
2019-05-26T06:32:03.189Z,17.98
2019-05-26T06:33:02.454Z,19
2019-05-26T06:34:02.669Z,19.34
2019-05-26T06:35:03.266Z,21.25
2019-05-26T06:36:02.543Z,17.86
2019-05-26T06:37:03.133Z,18.58
2019-05-26T06:38:03.069Z,18.54
2019-05-26T06:39:02.622Z,19.14
2019-05-26T06:40:03.169Z,16.95
2019-05-26T06:41:02.541Z,17.31
2019-05-26T06:42:03.306Z,17.09
2019-05-26T06:43:02.756Z,17.94
2019-05-26T06:44:02.534Z,17.85
2019-05-26T06:45:03.128Z,17.92
2019-05-26T06:46:02.671Z,21.39
2019-05-26T06:47:02.446Z,17.88
2019-05-26T06:48:02.813Z,18.73
2019-05-26T06:49:02.733Z,20.78
2019-05-26T06:50:02.948Z,18.24
2019-05-26T06:51:03.014Z,20.3
2019-05-26T06:52:02.555Z,18.99
2019-05-26T06:53:03.430Z,18.22
2019-05-26T06:54:02.748Z,17.81
2019-05-26T06:55:02.365Z,18.03
2019-05-26T06:56:03.010Z,17.29
2019-05-26T06:57:02.795Z,20.61
2019-05-26T06:58:02.630Z,17.96
2019-05-26T06:59:03.239Z,17.14
2019-05-26T07:00:02.883Z,16.71
2019-05-26T07:01:03.589Z,17.01
2019-05-26T07:02:03.284Z,17.15
2019-05-26T07:03:03.166Z,17.56
2019-05-26T07:04:03.288Z,18.05
2019-05-26T07:05:02.909Z,21.97
2019-05-26T07:06:02.484Z,21.97
2019-05-26T07:07:03.095Z,19.85
2019-05-26T07:08:02.474Z,18.18
2019-05-26T07:09:03.356Z,18.18
2019-05-26T07:10:02.731Z,17.48
2019-05-26T07:11:03.092Z,17.48
2019-05-26T07:12:02.793Z,16.11
2019-05-26T07:13:02.512Z,16.32
2019-05-26T07:14:03.088Z,16.74
2019-05-26T07:15:03.082Z,16.18
2019-05-26T07:16:02.256Z,16.08
2019-05-26T07:17:03.115Z,16.52
2019-05-26T07:18:02.433Z,17.58
2019-05-26T07:19:03.117Z,19.69
2019-05-26T07:20:02.963Z,17.62
2019-05-26T07:21:03.298Z,16.59
2019-05-26T07:22:03.121Z,16.45
2019-05-26T07:23:02.903Z,18.25
2019-05-26T07:24:02.507Z,17.78
2019-05-26T07:25:03.322Z,17.14
2019-05-26T07:26:02.636Z,15.63
2019-05-26T07:27:02.507Z,16.29
2019-05-26T07:28:04.231Z,16.96
2019-05-26T07:29:02.826Z,17.09
2019-05-26T07:30:03.493Z,15.58
2019-05-26T07:31:02.950Z,16.93
2019-05-26T07:32:02.540Z,16.76
2019-05-26T07:33:02.578Z,16.75
2019-05-26T07:34:02.943Z,15.92
2019-05-26T07:35:02.580Z,16
2019-05-26T07:36:03.113Z,15.77
2019-05-26T07:37:02.574Z,14.52
2019-05-26T07:38:03.254Z,17.83
2019-05-26T07:39:02.788Z,18.08
2019-05-26T07:40:02.780Z,16.41
2019-05-26T07:41:03.467Z,16.65
2019-05-26T07:42:09.747Z,15.37
2019-05-26T07:43:02.455Z,16.24
2019-05-26T07:44:03.044Z,16.1
2019-05-26T07:45:02.803Z,15.35
2019-05-26T07:46:02.571Z,18.24
2019-05-26T07:47:02.962Z,15.44
2019-05-26T07:48:02.827Z,14.75
2019-05-26T07:49:02.284Z,15.62
2019-05-26T07:50:03.479Z,17.15
2019-05-26T07:51:02.663Z,15.14
2019-05-26T07:52:03.060Z,15.42
2019-05-26T07:53:03.072Z,14.98
2019-05-26T07:54:03.088Z,14.21
2019-05-26T07:55:03.584Z,15.74
2019-05-26T07:56:03.114Z,16.28
2019-05-26T07:57:02.678Z,16.28
2019-05-26T07:58:02.615Z,14.15
2019-05-26T07:59:03.116Z,13.55
2019-05-26T08:00:02.785Z,13.55
2019-05-26T08:01:03.220Z,14.02
2019-05-26T08:02:02.932Z,14.02
2019-05-26T08:03:03.343Z,14.21
2019-05-26T08:04:02.860Z,12.85
2019-05-26T08:05:02.847Z,15.67
2019-05-26T08:06:02.587Z,13.78
2019-05-26T08:07:03.038Z,13.25
2019-05-26T08:08:11.849Z,14.88
2019-05-26T08:09:03.126Z,15.85
2019-05-26T08:10:03.072Z,12.94
2019-05-26T08:11:02.546Z,14.76
2019-05-26T08:12:02.871Z,13.42
2019-05-26T08:13:02.806Z,12.89
2019-05-26T08:14:02.561Z,12.65
2019-05-26T08:15:02.600Z,15.16
2019-05-26T08:16:02.553Z,13.56
2019-05-26T08:17:02.531Z,18.24
2019-05-26T08:18:03.117Z,13.91
2019-05-26T08:19:02.684Z,12.22
2019-05-26T08:20:03.323Z,13.33
2019-05-26T08:21:02.975Z,12.97
2019-05-26T08:22:02.405Z,12.79
2019-05-26T08:23:03.379Z,11.68
2019-05-26T08:24:02.901Z,11.51
2019-05-26T08:25:02.678Z,12.5
2019-05-26T08:26:03.297Z,13.09
2019-05-26T08:27:02.781Z,11.51
2019-05-26T08:28:02.615Z,16.42
2019-05-26T08:29:03.312Z,14.43
2019-05-26T08:30:02.883Z,15.18
2019-05-26T08:31:02.486Z,11.98
2019-05-26T08:32:02.874Z,11.94
2019-05-26T08:33:02.578Z,10.99
2019-05-26T08:34:03.042Z,10.89
2019-05-26T08:35:02.984Z,12.81
2019-05-26T08:36:02.603Z,11.12
2019-05-26T08:37:03.120Z,10.98
2019-05-26T08:38:02.843Z,10.64
2019-05-26T08:39:03.274Z,10.33
2019-05-26T08:40:03.418Z,11.21
2019-05-26T08:41:02.927Z,11.21
2019-05-26T08:42:02.281Z,12.66
2019-05-26T08:43:03.078Z,10.59
2019-05-26T08:44:02.731Z,10.59
2019-05-26T08:45:03.361Z,10.87
2019-05-26T08:46:02.844Z,17.71
2019-05-26T08:47:03.325Z,17.71
2019-05-26T08:48:03.355Z,10.97
2019-05-26T08:49:02.640Z,11.49
2019-05-26T08:50:03.507Z,11.46
2019-05-26T08:51:02.962Z,12.4
2019-05-26T08:52:02.651Z,12.49
2019-05-26T08:53:03.281Z,12.22
2019-05-26T08:54:02.856Z,11.18
2019-05-26T08:55:02.451Z,11.31
2019-05-26T08:56:03.032Z,9.95
2019-05-26T08:57:02.649Z,10.74
2019-05-26T08:58:03.271Z,11.39
2019-05-26T08:59:02.498Z,10.77
2019-05-26T09:00:02.601Z,10.59
2019-05-26T09:01:03.044Z,9.61
2019-05-26T09:02:02.812Z,11.45
2019-05-26T09:03:02.350Z,12.52
2019-05-26T09:04:03.047Z,9.89
2019-05-26T09:05:02.881Z,10.05
2019-05-26T09:06:02.458Z,9.92
2019-05-26T09:07:03.009Z,10.77
2019-05-26T09:08:02.574Z,12.31
2019-05-26T09:09:03.235Z,11.01
2019-05-26T09:10:02.770Z,11.28
2019-05-26T09:11:03.219Z,8.11
2019-05-26T09:12:03.415Z,8.5
2019-05-26T09:13:02.592Z,8.91
2019-05-26T09:14:03.275Z,8.41
2019-05-26T09:15:03.057Z,8.96
2019-05-26T09:16:02.371Z,8.96
2019-05-26T09:17:03.067Z,12.06
2019-05-26T09:18:03.136Z,8.83
2019-05-26T09:19:02.466Z,8.83
2019-05-26T09:20:02.922Z,9.15
2019-05-26T09:21:02.613Z,9.64
2019-05-26T09:22:02.963Z,9.64
2019-05-26T09:23:02.821Z,9.29
2019-05-26T09:24:03.365Z,9.41
2019-05-26T09:25:03.115Z,9.01
2019-05-26T09:26:02.617Z,10.28
2019-05-26T09:27:03.311Z,8.66
2019-05-26T09:28:02.628Z,8.61
2019-05-26T09:29:03.034Z,7.5
2019-05-26T09:30:02.959Z,8.64
2019-05-26T09:31:02.508Z,8.64
2019-05-26T09:32:03.258Z,7.94
2019-05-26T09:33:02.286Z,6.53
2019-05-26T09:34:02.623Z,9.31
2019-05-26T09:35:02.775Z,8.12
2019-05-26T09:36:03.255Z,7.82
2019-05-26T09:37:02.845Z,8.6
2019-05-26T09:38:02.613Z,7.62
2019-05-26T09:39:03.222Z,8.16
2019-05-26T09:40:02.782Z,7.73
2019-05-26T09:41:03.463Z,7.46
2019-05-26T09:42:02.812Z,7.56
2019-05-26T09:43:14.948Z,7.89
2019-05-26T09:44:03.164Z,6.84
2019-05-26T09:45:02.834Z,7.4
2019-05-26T09:46:03.365Z,6.66
2019-05-26T09:47:02.976Z,7.07
2019-05-26T09:48:03.335Z,7.35
2019-05-26T09:49:02.848Z,10.19
2019-05-26T09:50:03.002Z,8.42
2019-05-26T09:51:02.407Z,10.46
2019-05-26T09:52:03.098Z,7.67
2019-05-26T09:53:02.790Z,7.06
2019-05-26T09:54:03.412Z,7.06
2019-05-26T09:55:02.962Z,8.29
2019-05-26T09:56:02.693Z,8.29
2019-05-26T09:57:02.425Z,7.88
2019-05-26T09:58:02.864Z,9.34
2019-05-26T09:59:02.404Z,8.85
2019-05-26T10:00:03.008Z,10.31
2019-05-26T10:01:02.661Z,9.09
2019-05-26T10:02:03.260Z,7.69
2019-05-26T10:03:03.004Z,8.89
2019-05-26T10:04:02.483Z,8.85
2019-05-26T10:05:03.215Z,8.25
2019-05-26T10:06:02.394Z,8.88
2019-05-26T10:07:03.167Z,10.09
2019-05-26T10:08:02.606Z,7.92
2019-05-26T10:09:03.441Z,7.85
2019-05-26T10:10:03.250Z,8.38
2019-05-26T10:11:02.501Z,7.45
2019-05-26T10:12:03.024Z,6.69
2019-05-26T10:13:02.698Z,7.27
2019-05-26T10:14:03.182Z,10.41
2019-05-26T10:15:03.053Z,9.51
2019-05-26T10:16:03.420Z,7.21
2019-05-26T10:17:03.150Z,6.29
2019-05-26T10:18:02.685Z,6.11
2019-05-26T10:19:03.383Z,6.34
2019-05-26T10:20:02.807Z,5.34
2019-05-26T10:21:02.357Z,7.76
2019-05-26T10:22:03.200Z,6.02
2019-05-26T10:23:02.645Z,5.76
2019-05-26T10:24:03.433Z,5.38
2019-05-26T10:25:03.013Z,7.31
2019-05-26T10:26:02.443Z,6.01
2019-05-26T10:27:02.493Z,5.78
2019-05-26T10:28:03.294Z,6.84
2019-05-26T10:29:02.644Z,6.16
2019-05-26T10:30:03.285Z,5.14
2019-05-26T10:31:02.695Z,5.32
2019-05-26T10:32:03.363Z,6.73
2019-05-26T10:33:03.087Z,4.88
2019-05-26T10:34:02.878Z,4.76
2019-05-26T10:35:03.293Z,4.11
2019-05-26T10:36:02.747Z,6.35
2019-05-26T10:37:03.338Z,5.17
2019-05-26T10:38:02.915Z,5.8
2019-05-26T10:39:03.461Z,4.37
2019-05-26T10:40:03.398Z,4.74
2019-05-26T10:41:02.651Z,4.86
2019-05-26T10:42:02.485Z,4.91
2019-05-26T10:43:03.094Z,3.45
2019-05-26T10:44:02.533Z,3.46
2019-05-26T10:45:03.466Z,3.74
2019-05-26T10:46:03.235Z,5.18
2019-05-26T10:47:02.828Z,3.78
2019-05-26T10:48:02.544Z,3.25
2019-05-26T10:49:03.026Z,3.25
2019-05-26T10:50:02.928Z,4.65
2019-05-26T10:51:03.119Z,4.65
2019-05-26T10:52:02.983Z,3.51
2019-05-26T10:53:02.518Z,4.62
2019-05-26T10:54:02.428Z,4.62
2019-05-26T10:55:02.834Z,3.42
2019-05-26T10:56:02.790Z,3.85
2019-05-26T10:57:03.205Z,3.46
2019-05-26T10:58:03.273Z,3.51
2019-05-26T10:59:02.723Z,3.49
2019-05-26T11:00:03.415Z,6.38
2019-05-26T11:01:02.720Z,4.06
2019-05-26T11:02:03.274Z,4.36
2019-05-26T11:03:04.137Z,4.68
2019-05-26T11:04:03.322Z,4.09
2019-05-26T11:05:02.635Z,5.35
2019-05-26T11:06:02.574Z,4.75
2019-05-26T11:07:02.493Z,4.45
2019-05-26T11:08:02.299Z,7.41
2019-05-26T11:09:03.378Z,5.56
2019-05-26T11:10:02.946Z,6.25
2019-05-26T11:11:02.565Z,5.76
2019-05-26T11:12:02.982Z,6.14
2019-05-26T11:13:03.380Z,5.09
2019-05-26T11:14:03.541Z,5.32
2019-05-26T11:15:03.331Z,4.77
2019-05-26T11:16:02.972Z,7.55
2019-05-26T11:17:02.591Z,10.18
2019-05-26T11:18:03.209Z,5.18
2019-05-26T11:19:02.886Z,5.06
2019-05-26T11:20:02.667Z,5.26
2019-05-26T11:21:02.978Z,5.6
2019-05-26T11:22:02.794Z,4.61
2019-05-26T11:23:02.486Z,4.51
2019-05-26T11:24:03.420Z,5.35
2019-05-26T11:25:03.102Z,7.16
2019-05-26T11:26:02.482Z,6.08
2019-05-26T11:27:08.853Z,5.47
2019-05-26T11:28:02.559Z,5.22
2019-05-26T11:29:03.209Z,6.09
2019-05-26T11:30:02.847Z,6.47
2019-05-26T11:31:03.229Z,5.79
2019-05-26T11:32:02.748Z,4.05
2019-05-26T11:33:03.329Z,5.44
2019-05-26T11:34:02.871Z,3.51
2019-05-26T11:35:02.560Z,4.69
2019-05-26T11:36:03.157Z,4.88
2019-05-26T11:37:02.581Z,4.44
2019-05-26T11:38:03.295Z,4.11
2019-05-26T11:39:02.879Z,5.65
2019-05-26T11:40:03.430Z,3.92
2019-05-26T11:41:03.042Z,4.96
2019-05-26T11:42:12.630Z,4.11
2019-05-26T11:43:15.613Z,6.14
2019-05-26T11:44:16.967Z,6.45
2019-05-26T11:45:02.588Z,3.11
2019-05-26T11:46:03.156Z,3.59
2019-05-26T11:47:02.704Z,3.46
2019-05-26T11:48:03.282Z,4.35
2019-05-26T11:49:02.639Z,3.69
2019-05-26T11:50:02.456Z,3.35
2019-05-26T11:51:03.126Z,3.69
2019-05-26T11:52:02.678Z,3.53
2019-05-26T11:53:03.205Z,9.02
2019-05-26T11:54:02.961Z,8.49
2019-05-26T11:55:02.628Z,3.63
2019-05-26T11:56:03.335Z,4.1
2019-05-26T11:57:02.798Z,4.64
2019-05-26T11:58:03.370Z,4.11
2019-05-26T11:59:03.067Z,3.98
2019-05-26T12:00:03.261Z,5.54
2019-05-26T12:01:02.582Z,4.69
2019-05-26T12:02:03.185Z,3.76
2019-05-26T12:03:03.020Z,4.61
2019-05-26T12:04:02.442Z,3.85
2019-05-26T12:05:02.853Z,3.71
2019-05-26T12:06:02.813Z,8.06
2019-05-26T12:07:04.423Z,8.06
2019-05-26T12:08:03.044Z,3.99
2019-05-26T12:09:02.874Z,4.52
2019-05-26T12:10:03.455Z,3.71
2019-05-26T12:11:03.048Z,3.58
2019-05-26T12:12:02.642Z,4.52
2019-05-26T12:13:03.012Z,5.39
2019-05-26T12:14:03.095Z,5.39
2019-05-26T12:15:02.515Z,3.99
2019-05-26T12:16:03.044Z,3.94
2019-05-26T12:17:02.793Z,3.94
2019-05-26T12:18:02.650Z,4.45
2019-05-26T12:19:02.372Z,4.66
2019-05-26T12:20:05.194Z,6.11
2019-05-26T12:21:03.421Z,4.08
2019-05-26T12:22:02.913Z,4.62
2019-05-26T12:23:03.334Z,4.01
2019-05-26T12:24:02.839Z,4.45
2019-05-26T12:25:02.470Z,5.34
2019-05-26T12:26:03.224Z,5.28
2019-05-26T12:27:02.808Z,4.02
2019-05-26T12:28:03.159Z,7.67
2019-05-26T12:29:02.714Z,3.46
2019-05-26T12:30:03.244Z,3.74
2019-05-26T12:31:03.127Z,3.75
2019-05-26T12:32:02.790Z,3.35
2019-05-26T12:33:02.461Z,5.77
2019-05-26T12:34:03.031Z,3.98
2019-05-26T12:35:02.524Z,3.31
2019-05-26T12:36:03.155Z,5.61
2019-05-26T12:37:02.767Z,4.04
2019-05-26T12:38:02.509Z,10.11
2019-05-26T12:39:03.052Z,3.82
2019-05-26T12:40:02.796Z,3.47
2019-05-26T12:41:03.000Z,6.82
2019-05-26T12:42:02.371Z,3.99
2019-05-26T12:43:03.230Z,4.52
2019-05-26T12:44:02.885Z,3.75
2019-05-26T12:45:03.310Z,4.42
2019-05-26T12:46:02.582Z,5.08
2019-05-26T12:47:03.251Z,4.01
2019-05-26T12:48:02.898Z,4.87
2019-05-26T12:49:02.587Z,4.98
2019-05-26T12:50:03.461Z,5.94
2019-05-26T12:51:02.872Z,4.56
2019-05-26T12:52:02.472Z,3.73
2019-05-26T12:53:02.963Z,4.17
2019-05-26T12:54:03.405Z,3.95
2019-05-26T12:55:03.161Z,4.96
2019-05-26T12:56:02.946Z,7.84
2019-05-26T12:57:03.206Z,3.05
2019-05-26T12:58:03.034Z,3.89
2019-05-26T12:59:02.750Z,3.67
2019-05-26T13:00:02.982Z,3.74
2019-05-26T13:01:02.697Z,5.57
2019-05-26T13:02:02.342Z,4.25
2019-05-26T13:03:03.492Z,3.68
2019-05-26T13:04:02.874Z,3.51
2019-05-26T13:05:03.324Z,3.88
2019-05-26T13:06:03.034Z,2.92
2019-05-26T13:07:02.938Z,5.82
2019-05-26T13:08:02.559Z,2.87
2019-05-26T13:09:03.128Z,3.28